createdAt,value
2018-03-31T00:00:20.075Z,27.97
2018-03-31T00:02:47.065Z,23.83
2018-03-31T00:05:14.792Z,22.87
2018-03-31T00:07:41.772Z,25.17
2018-03-31T00:10:08.720Z,21.53
2018-03-31T00:12:35.715Z,21.03
2018-03-31T00:15:02.699Z,19.33
2018-03-31T00:17:30.439Z,27.40
2018-03-31T00:19:58.218Z,25.90
2018-03-31T00:22:25.959Z,23.20
2018-03-31T00:24:52.908Z,21.17
2018-03-31T00:27:19.893Z,38.00
2018-03-31T00:29:46.856Z,23.77
2018-03-31T00:32:13.816Z,24.67
2018-03-31T00:34:40.766Z,21.40
2018-03-31T00:37:07.739Z,19.60
2018-03-31T00:39:34.682Z,21.43
2018-03-31T00:42:01.647Z,22.90
2018-03-31T00:44:29.356Z,18.70
2018-03-31T00:46:56.335Z,21.40
2018-03-31T00:49:23.314Z,22.40
2018-03-31T00:51:51.073Z,20.73
2018-03-31T00:54:18.798Z,22.97
2018-03-31T00:56:45.735Z,18.03
2018-03-31T00:59:12.703Z,23.17
2018-03-31T01:01:39.690Z,19.27
2018-03-31T01:04:06.647Z,19.30
2018-03-31T01:06:33.643Z,23.93
2018-03-31T01:09:00.599Z,17.77
2018-03-31T01:11:27.531Z,21.83
2018-03-31T01:13:54.524Z,16.73
2018-03-31T01:16:21.465Z,19.33
2018-03-31T01:18:48.433Z,21.93
2018-03-31T01:21:15.387Z,21.70
2018-03-31T01:23:42.356Z,20.07
2018-03-31T01:26:09.319Z,22.17
2018-03-31T01:28:37.043Z,21.40
2018-03-31T01:31:03.990Z,22.07
2018-03-31T01:33:30.966Z,19.53
2018-03-31T01:35:58.773Z,23.80
2018-03-31T01:38:25.706Z,21.00
2018-03-31T01:40:52.677Z,21.63
2018-03-31T01:43:20.529Z,22.63
2018-03-31T01:45:47.507Z,19.93
2018-03-31T01:48:14.519Z,19.43
2018-03-31T01:50:41.479Z,23.90
2018-03-31T01:53:08.459Z,22.40
2018-03-31T01:55:35.409Z,18.13
2018-03-31T01:58:02.351Z,18.77
2018-03-31T02:00:29.331Z,25.70
2018-03-31T02:02:56.289Z,27.17
2018-03-31T02:05:23.223Z,20.80
2018-03-31T02:07:50.194Z,22.13
2018-03-31T02:10:17.187Z,23.40
2018-03-31T02:12:45.677Z,28.47
2018-03-31T02:15:13.412Z,20.43
2018-03-31T02:17:40.492Z,22.83
2018-03-31T02:20:08.215Z,17.10
2018-03-31T02:22:35.151Z,27.23
2018-03-31T02:25:02.119Z,20.43
2018-03-31T02:27:29.067Z,20.10
2018-03-31T02:29:56.069Z,20.37
2018-03-31T02:32:23.045Z,19.93
2018-03-31T02:34:50.007Z,26.07
2018-03-31T02:37:16.959Z,23.53
2018-03-31T02:39:44.676Z,23.13
2018-03-31T02:42:11.644Z,27.43
2018-03-31T02:44:38.623Z,24.80
2018-03-31T02:47:06.380Z,25.80
2018-03-31T02:49:34.116Z,25.13
2018-03-31T02:52:01.085Z,23.50
2018-03-31T02:54:28.056Z,23.23
2018-03-31T02:56:55.007Z,25.90
2018-03-31T02:59:21.999Z,25.80
2018-03-31T03:01:49.009Z,27.73
2018-03-31T03:04:15.958Z,24.87
2018-03-31T03:06:42.920Z,26.67
2018-03-31T03:09:09.875Z,24.13
2018-03-31T03:11:36.856Z,24.83
2018-03-31T03:14:04.612Z,29.87
2018-03-31T03:16:31.567Z,25.87
2018-03-31T03:18:59.313Z,27.10
2018-03-31T03:21:26.291Z,28.20
2018-03-31T03:23:54.020Z,25.10
2018-03-31T03:26:20.989Z,26.33
2018-03-31T03:28:48.736Z,23.50
2018-03-31T03:31:15.711Z,26.30
2018-03-31T03:33:42.705Z,26.00
2018-03-31T03:36:09.642Z,27.10
2018-03-31T03:38:36.624Z,34.27
2018-03-31T03:41:04.378Z,29.50
2018-03-31T03:43:31.337Z,30.70
2018-03-31T03:45:59.135Z,29.60
2018-03-31T03:48:26.095Z,25.87
2018-03-31T03:50:53.063Z,25.63
2018-03-31T03:53:20.034Z,24.50
2018-03-31T03:55:47.761Z,30.03
2018-03-31T03:58:14.728Z,21.83
2018-03-31T04:00:41.683Z,30.20
2018-03-31T04:03:08.667Z,23.50
2018-03-31T04:05:35.635Z,29.13
2018-03-31T04:08:02.621Z,28.83
2018-03-31T04:10:29.560Z,29.30
2018-03-31T04:12:56.500Z,26.33
2018-03-31T04:15:23.484Z,30.07
2018-03-31T04:17:51.223Z,27.23
2018-03-31T04:20:18.976Z,29.47
2018-03-31T04:22:45.956Z,33.23
2018-03-31T04:25:12.900Z,31.10
2018-03-31T04:27:39.871Z,33.07
2018-03-31T04:30:06.831Z,33.93
2018-03-31T04:32:33.815Z,34.67
2018-03-31T04:35:00.787Z,34.90
2018-03-31T04:37:27.760Z,36.37
2018-03-31T04:39:54.715Z,37.80
2018-03-31T04:42:21.684Z,35.67
2018-03-31T04:44:48.670Z,38.63
2018-03-31T04:47:15.621Z,37.37
2018-03-31T04:49:42.631Z,34.90
2018-03-31T04:52:09.622Z,29.57
2018-03-31T04:54:36.574Z,35.07
2018-03-31T04:57:03.524Z,33.20
2018-03-31T04:59:30.491Z,34.13
2018-03-31T05:01:57.466Z,32.93
2018-03-31T05:04:25.198Z,34.37
2018-03-31T05:06:52.187Z,35.40
2018-03-31T05:09:19.935Z,37.47
2018-03-31T05:11:47.659Z,31.30
2018-03-31T05:14:14.635Z,29.93
2018-03-31T05:16:41.614Z,35.67
2018-03-31T05:19:08.555Z,35.50
2018-03-31T05:21:35.541Z,38.43
2018-03-31T05:24:02.543Z,34.60
2018-03-31T05:26:29.526Z,36.20
2018-03-31T05:28:56.515Z,37.43
2018-03-31T05:31:23.456Z,33.57
2018-03-31T05:33:50.401Z,37.27
2018-03-31T05:36:17.373Z,36.83
2018-03-31T05:38:44.327Z,35.70
2018-03-31T05:41:11.303Z,37.93
2018-03-31T05:43:38.297Z,31.07
2018-03-31T05:46:05.234Z,32.00
2018-03-31T05:48:32.963Z,34.87
2018-03-31T05:50:59.923Z,35.90
2018-03-31T05:53:26.896Z,34.20
2018-03-31T05:55:54.643Z,27.90
2018-03-31T05:58:21.603Z,31.03
2018-03-31T06:00:48.556Z,30.93
2018-03-31T06:03:16.275Z,33.07
2018-03-31T06:05:43.254Z,31.63
2018-03-31T06:08:10.219Z,30.60
2018-03-31T06:10:37.207Z,30.80
2018-03-31T06:13:04.935Z,33.13
2018-03-31T06:15:31.907Z,32.17
2018-03-31T06:17:58.856Z,38.17
2018-03-31T06:20:25.849Z,36.43
2018-03-31T06:22:52.796Z,29.47
2018-03-31T06:25:20.559Z,28.20
2018-03-31T06:27:48.302Z,32.10
2018-03-31T06:30:15.244Z,35.97
2018-03-31T06:32:42.213Z,29.63
2018-03-31T06:35:09.960Z,34.50
2018-03-31T06:37:36.895Z,34.17
2018-03-31T06:40:03.872Z,33.00
2018-03-31T06:42:31.584Z,30.10
2018-03-31T06:44:58.551Z,39.40
2018-03-31T06:47:25.548Z,33.20
2018-03-31T06:49:52.482Z,36.33
2018-03-31T06:52:19.471Z,32.33
2018-03-31T06:54:46.494Z,38.27
2018-03-31T06:57:13.416Z,37.20
2018-03-31T06:59:40.364Z,31.67
2018-03-31T07:02:07.347Z,33.57
2018-03-31T07:04:35.104Z,32.67
2018-03-31T07:07:02.056Z,29.73
2018-03-31T07:09:29.016Z,33.13
2018-03-31T07:11:55.991Z,34.77
2018-03-31T07:14:23.706Z,34.87
2018-03-31T07:16:50.738Z,32.10
2018-03-31T07:19:17.707Z,38.00
2018-03-31T07:21:45.171Z,43.03
2018-03-31T07:24:12.118Z,30.27
2018-03-31T07:26:39.086Z,41.20
2018-03-31T07:29:06.801Z,31.93
2018-03-31T07:31:33.760Z,35.70
2018-03-31T07:34:00.712Z,36.63
2018-03-31T07:36:28.598Z,35.90
2018-03-31T07:38:55.540Z,33.57
2018-03-31T07:41:22.496Z,35.10
2018-03-31T07:43:49.459Z,30.40
2018-03-31T07:46:17.179Z,33.17
2018-03-31T07:48:44.143Z,29.70
2018-03-31T07:51:11.144Z,27.83
2018-03-31T07:53:38.095Z,26.10
2018-03-31T07:56:05.064Z,34.70
2018-03-31T07:58:32.038Z,32.30
2018-03-31T08:00:59.988Z,30.00
2018-03-31T08:03:26.990Z,34.80
2018-03-31T08:05:53.969Z,29.50
2018-03-31T08:08:20.946Z,40.10
2018-03-31T08:10:47.934Z,33.27
2018-03-31T08:13:14.892Z,34.53
2018-03-31T08:15:41.855Z,29.70
2018-03-31T08:18:08.817Z,29.07
2018-03-31T08:20:35.770Z,30.67
2018-03-31T08:23:03.497Z,31.83
2018-03-31T08:25:30.502Z,33.90
2018-03-31T08:27:57.452Z,32.90
2018-03-31T08:30:24.461Z,32.37
2018-03-31T08:32:51.371Z,32.83
2018-03-31T08:35:18.311Z,38.93
2018-03-31T08:37:45.286Z,27.30
2018-03-31T08:40:12.247Z,30.37
2018-03-31T08:42:39.584Z,32.93
2018-03-31T08:45:06.557Z,32.83
2018-03-31T08:47:34.295Z,29.20
2018-03-31T08:50:01.340Z,27.63
2018-03-31T08:52:28.374Z,29.47
2018-03-31T08:54:55.350Z,26.63
2018-03-31T08:57:22.303Z,29.37
2018-03-31T08:59:50.209Z,24.43
2018-03-31T09:02:17.151Z,30.03
2018-03-31T09:04:44.134Z,30.00
2018-03-31T09:07:11.092Z,27.97
2018-03-31T09:09:38.074Z,28.90
2018-03-31T09:12:05.063Z,28.00
2018-03-31T09:14:32.016Z,31.40
2018-03-31T09:16:59.012Z,28.60
2018-03-31T09:19:26.019Z,28.90
2018-03-31T09:21:53.020Z,23.77
2018-03-31T09:24:20.076Z,27.80
2018-03-31T09:26:47.263Z,25.57
2018-03-31T09:29:14.214Z,25.00
2018-03-31T09:31:41.182Z,26.23
2018-03-31T09:34:08.891Z,23.87
2018-03-31T09:36:35.871Z,24.20
2018-03-31T09:39:02.816Z,23.60
2018-03-31T09:41:29.843Z,24.43
2018-03-31T09:43:56.811Z,28.43
2018-03-31T09:46:23.779Z,24.80
2018-03-31T09:48:51.494Z,23.80
2018-03-31T09:51:18.486Z,22.97
2018-03-31T09:53:46.955Z,23.93
2018-03-31T09:56:13.892Z,31.07
2018-03-31T09:58:41.600Z,30.07
2018-03-31T10:01:08.567Z,23.93
2018-03-31T10:03:36.467Z,24.47
2018-03-31T10:06:04.279Z,27.30
2018-03-31T10:08:31.253Z,25.13
2018-03-31T10:10:58.224Z,29.77
2018-03-31T10:13:25.163Z,28.63
2018-03-31T10:15:52.143Z,25.53
2018-03-31T10:18:19.147Z,28.03
2018-03-31T10:20:46.102Z,25.50
2018-03-31T10:23:13.073Z,21.77
2018-03-31T10:25:40.796Z,25.10
2018-03-31T10:28:07.774Z,28.70
2018-03-31T10:30:35.500Z,33.60
2018-03-31T10:33:02.448Z,25.90
2018-03-31T10:35:29.434Z,32.07
2018-03-31T10:37:57.160Z,29.80
2018-03-31T10:40:24.115Z,30.17
2018-03-31T10:42:51.114Z,30.07
2018-03-31T10:45:18.159Z,28.37
2018-03-31T10:47:45.099Z,29.57
2018-03-31T10:50:12.091Z,25.50
2018-03-31T10:52:39.039Z,28.47
2018-03-31T10:55:06.004Z,24.73
2018-03-31T10:57:33.751Z,30.40
2018-03-31T11:00:00.704Z,28.70
2018-03-31T11:02:27.673Z,24.70
2018-03-31T11:04:54.636Z,24.80
2018-03-31T11:07:21.629Z,29.23
2018-03-31T11:09:48.635Z,27.60
2018-03-31T11:12:15.682Z,32.57
2018-03-31T11:14:42.635Z,23.33
2018-03-31T11:17:09.609Z,24.77
2018-03-31T11:19:36.660Z,24.10
2018-03-31T11:22:03.573Z,22.70
2018-03-31T11:24:30.539Z,27.03
2018-03-31T11:26:57.533Z,24.27
2018-03-31T11:29:25.302Z,24.93
2018-03-31T11:31:52.278Z,23.93
2018-03-31T11:34:19.213Z,23.33
2018-03-31T11:36:46.209Z,19.47
2018-03-31T11:39:13.239Z,23.87
2018-03-31T11:41:40.248Z,21.83
2018-03-31T11:44:07.186Z,17.40
2018-03-31T11:46:34.168Z,20.90
2018-03-31T11:49:01.108Z,17.47
2018-03-31T11:51:28.186Z,17.27
2018-03-31T11:53:55.176Z,22.13
2018-03-31T11:56:22.133Z,19.10
2018-03-31T11:58:49.113Z,25.30
2018-03-31T12:01:16.053Z,24.27
2018-03-31T12:03:43.027Z,34.00
2018-03-31T12:06:10.740Z,21.27
2018-03-31T12:08:37.720Z,19.73
2018-03-31T12:11:04.697Z,20.40
2018-03-31T12:13:31.648Z,19.10
2018-03-31T12:15:58.621Z,19.83
2018-03-31T12:18:26.328Z,18.27
2018-03-31T12:20:54.095Z,20.77
2018-03-31T12:23:21.076Z,19.07
2018-03-31T12:25:48.014Z,15.70
2018-03-31T12:28:14.989Z,18.20
2018-03-31T12:30:41.945Z,13.00
2018-03-31T12:33:08.911Z,15.97
2018-03-31T12:35:35.884Z,22.83
2018-03-31T12:38:03.619Z,17.03
2018-03-31T12:40:30.580Z,15.70
2018-03-31T12:42:57.554Z,15.40
2018-03-31T12:45:24.545Z,14.23
2018-03-31T12:47:51.493Z,25.97
2018-03-31T12:50:18.495Z,15.70
2018-03-31T12:52:45.431Z,16.93
2018-03-31T12:55:12.407Z,14.00
2018-03-31T12:57:39.356Z,15.37
2018-03-31T13:00:06.335Z,12.30
2018-03-31T13:02:33.270Z,15.07
2018-03-31T13:05:00.215Z,13.23
2018-03-31T13:07:27.194Z,12.83
2018-03-31T13:09:54.941Z,13.47
2018-03-31T13:12:22.664Z,12.60
2018-03-31T13:14:49.620Z,28.40
2018-03-31T13:17:16.583Z,15.43
2018-03-31T13:19:43.524Z,17.73
2018-03-31T13:22:10.502Z,13.73
2018-03-31T13:24:37.467Z,12.53
2018-03-31T13:27:04.516Z,11.90
2018-03-31T13:29:31.458Z,11.40
2018-03-31T13:31:58.424Z,12.53
2018-03-31T13:34:25.371Z,13.93
2018-03-31T13:36:52.363Z,12.23
2018-03-31T13:39:20.075Z,13.03
2018-03-31T13:41:47.787Z,12.07
2018-03-31T13:44:15.529Z,11.33
2018-03-31T13:46:42.480Z,10.73
2018-03-31T13:49:09.581Z,12.13
2018-03-31T13:51:36.524Z,10.90
2018-03-31T13:54:03.466Z,10.07
2018-03-31T13:56:30.436Z,13.03
2018-03-31T13:58:57.391Z,9.47
2018-03-31T14:01:24.345Z,10.70
2018-03-31T14:03:51.306Z,9.97
2018-03-31T14:06:18.297Z,12.47
2018-03-31T14:08:45.247Z,11.67
2018-03-31T14:11:12.208Z,14.10
2018-03-31T14:13:39.179Z,13.30
2018-03-31T14:16:06.116Z,15.57
2018-03-31T14:18:33.091Z,12.83
2018-03-31T14:21:00.803Z,12.03
2018-03-31T14:23:27.806Z,10.80
2018-03-31T14:25:55.834Z,14.27
2018-03-31T14:28:22.796Z,13.60
2018-03-31T14:30:49.739Z,15.33
2018-03-31T14:33:16.708Z,16.60
2018-03-31T14:35:44.420Z,12.17
2018-03-31T14:38:11.384Z,12.40
2018-03-31T14:40:38.368Z,16.43
2018-03-31T14:43:06.157Z,13.37
2018-03-31T14:45:33.115Z,14.80
2018-03-31T14:48:00.843Z,11.93
2018-03-31T14:50:28.581Z,14.67
2018-03-31T14:52:55.523Z,17.45
2018-03-31T14:55:22.474Z,32.40
2018-03-31T14:57:49.440Z,15.30
2018-03-31T15:00:17.183Z,15.93
2018-03-31T15:02:44.139Z,13.90
2018-03-31T15:05:11.880Z,16.07
2018-03-31T15:07:38.859Z,16.50
2018-03-31T15:10:06.631Z,40.03
2018-03-31T15:12:33.599Z,14.43
2018-03-31T15:15:00.578Z,18.10
2018-03-31T15:17:27.526Z,14.77
2018-03-31T15:19:54.507Z,16.93
2018-03-31T15:22:22.247Z,17.87
2018-03-31T15:24:50.367Z,14.37
2018-03-31T15:27:17.335Z,12.40
2018-03-31T15:29:44.276Z,13.73
2018-03-31T15:32:11.253Z,17.90
2018-03-31T15:34:38.220Z,14.17
2018-03-31T15:37:05.176Z,12.90
2018-03-31T15:39:32.124Z,11.70
2018-03-31T15:41:59.104Z,14.27
2018-03-31T15:44:26.132Z,13.80
2018-03-31T15:46:53.079Z,15.97
2018-03-31T15:49:20.064Z,15.40
2018-03-31T15:51:47.003Z,12.33
2018-03-31T15:54:14.115Z,12.33
2018-03-31T15:56:42.613Z,14.90
2018-03-31T15:59:09.568Z,15.23
2018-03-31T16:01:36.546Z,17.30
2018-03-31T16:04:03.537Z,17.20
2018-03-31T16:06:30.469Z,17.27
2018-03-31T16:08:57.448Z,16.60
2018-03-31T16:11:25.168Z,14.63
2018-03-31T16:13:52.156Z,16.20
2018-03-31T16:16:19.103Z,13.60
2018-03-31T16:18:46.084Z,12.40
2018-03-31T16:21:13.806Z,13.17
2018-03-31T16:23:40.776Z,16.83
2018-03-31T16:26:07.744Z,17.30
2018-03-31T16:28:35.455Z,16.40
2018-03-31T16:31:02.431Z,16.10
2018-03-31T16:33:29.365Z,22.27
2018-03-31T16:35:56.327Z,18.50
2018-03-31T16:38:23.323Z,14.87
2018-03-31T16:40:50.287Z,22.00
2018-03-31T16:43:17.256Z,24.70
2018-03-31T16:45:44.236Z,17.53
2018-03-31T16:48:11.982Z,16.13
2018-03-31T16:50:38.920Z,15.40
2018-03-31T16:53:05.915Z,19.70
2018-03-31T16:55:32.888Z,27.10
2018-03-31T16:57:59.848Z,24.57
2018-03-31T17:00:26.812Z,126.80
2018-03-31T17:02:54.617Z,34.50
2018-03-31T17:05:21.570Z,53.47
2018-03-31T17:07:48.545Z,14.83
2018-03-31T17:10:15.536Z,20.87
2018-03-31T17:12:43.239Z,19.03
2018-03-31T17:15:10.197Z,17.93
2018-03-31T17:17:37.159Z,13.80
2018-03-31T17:20:04.117Z,15.70
2018-03-31T17:22:31.850Z,19.63
2018-03-31T17:24:58.811Z,24.40
2018-03-31T17:27:25.807Z,18.40
2018-03-31T17:29:52.764Z,18.60
2018-03-31T17:32:19.725Z,17.80
2018-03-31T17:34:46.692Z,15.70
2018-03-31T17:37:13.685Z,30.63
2018-03-31T17:39:40.636Z,18.67
2018-03-31T17:42:07.625Z,13.97
2018-03-31T17:44:34.603Z,14.50
2018-03-31T17:47:02.340Z,17.43
2018-03-31T17:49:29.319Z,17.13
2018-03-31T17:51:56.273Z,16.80
2018-03-31T17:54:23.239Z,15.60
2018-03-31T17:56:50.241Z,22.10
2018-03-31T17:59:17.959Z,22.87
2018-03-31T18:01:44.957Z,19.77
2018-03-31T18:04:12.672Z,53.63
2018-03-31T18:06:39.624Z,26.30
2018-03-31T18:09:06.593Z,14.57
2018-03-31T18:11:34.320Z,20.53
2018-03-31T18:14:01.345Z,30.30
2018-03-31T18:16:28.317Z,37.93
2018-03-31T18:18:55.271Z,48.60
2018-03-31T18:21:22.236Z,66.33
2018-03-31T18:23:49.224Z,187.80
2018-03-31T18:26:16.191Z,63.43
2018-03-31T18:28:43.240Z,71.87
2018-03-31T18:31:10.272Z,71.27
2018-03-31T18:33:37.235Z,80.13
2018-03-31T18:36:04.736Z,67.60
2018-03-31T18:38:32.456Z,53.17
2018-03-31T18:40:59.428Z,40.83
2018-03-31T18:43:26.396Z,44.83
2018-03-31T18:45:54.131Z,43.40
2018-03-31T18:48:21.098Z,45.50
2018-03-31T18:50:49.213Z,42.13
2018-03-31T18:53:16.170Z,42.03
2018-03-31T18:55:43.144Z,45.63
2018-03-31T18:58:10.094Z,40.37
2018-03-31T19:00:37.062Z,37.93
2018-03-31T19:03:04.794Z,35.77
2018-03-31T19:05:31.760Z,42.67
2018-03-31T19:07:59.486Z,35.83
2018-03-31T19:10:26.498Z,36.30
2018-03-31T19:12:53.451Z,30.23
2018-03-31T19:15:20.420Z,36.47
2018-03-31T19:17:47.373Z,48.50
2018-03-31T19:20:17.155Z,55.83
2018-03-31T19:22:44.136Z,54.90
2018-03-31T19:25:16.852Z,45.43
2018-03-31T19:27:43.822Z,33.90
2018-03-31T19:30:10.771Z,29.90
2018-03-31T19:32:37.742Z,28.90
2018-03-31T19:35:05.475Z,26.97
2018-03-31T19:37:32.456Z,24.87
2018-03-31T19:39:59.424Z,19.57
2018-03-31T19:42:26.380Z,26.17
2018-03-31T19:44:54.118Z,20.83
2018-03-31T19:47:21.137Z,25.53
2018-03-31T19:49:48.124Z,32.60
2018-03-31T19:52:15.079Z,27.90
2018-03-31T19:54:42.829Z,23.23
2018-03-31T19:57:09.829Z,25.30
2018-03-31T19:59:36.770Z,30.97
2018-03-31T20:02:03.740Z,37.03
2018-03-31T20:04:30.696Z,36.10
2018-03-31T20:06:57.685Z,27.97
2018-03-31T20:09:24.661Z,29.93
2018-03-31T20:11:51.619Z,34.80
2018-03-31T20:14:18.608Z,32.90
2018-03-31T20:16:45.555Z,22.30
2018-03-31T20:19:13.296Z,23.60
2018-03-31T20:21:40.257Z,22.77
2018-03-31T20:24:07.202Z,21.80
2018-03-31T20:26:34.180Z,23.73
2018-03-31T20:29:01.127Z,22.93
2018-03-31T20:31:28.104Z,22.50
2018-03-31T20:33:55.810Z,22.27
2018-03-31T20:36:23.544Z,20.03
2018-03-31T20:38:50.506Z,23.30
2018-03-31T20:41:17.503Z,23.50
2018-03-31T20:43:44.483Z,19.20
2018-03-31T20:46:11.500Z,22.60
2018-03-31T20:48:38.460Z,25.37
2018-03-31T20:51:05.410Z,21.50
2018-03-31T20:53:32.425Z,27.50
2018-03-31T20:55:59.364Z,22.83
2018-03-31T20:58:26.337Z,22.53
2018-03-31T21:00:53.300Z,27.60
2018-03-31T21:03:20.270Z,17.70
2018-03-31T21:05:47.255Z,20.90
2018-03-31T21:08:14.245Z,17.00
2018-03-31T21:10:41.185Z,19.60
2018-03-31T21:13:08.138Z,18.87
2018-03-31T21:15:35.119Z,20.03
2018-03-31T21:18:02.133Z,22.93
2018-03-31T21:20:29.112Z,19.07
2018-03-31T21:22:56.091Z,18.70
2018-03-31T21:25:23.073Z,19.90
2018-03-31T21:27:50.106Z,20.20
2018-03-31T21:30:17.071Z,22.17
2018-03-31T21:32:44.055Z,21.43
2018-03-31T21:35:11.011Z,20.57
2018-03-31T21:37:38.007Z,26.27
2018-03-31T21:40:05.131Z,23.50
2018-03-31T21:42:32.091Z,23.10
2018-03-31T21:44:59.063Z,33.53
2018-03-31T21:47:26.796Z,21.20
2018-03-31T21:49:53.751Z,20.33
2018-03-31T21:52:22.243Z,23.07
2018-03-31T21:54:49.976Z,22.77
2018-03-31T21:57:17.030Z,26.47
2018-03-31T21:59:44.826Z,26.50
2018-03-31T22:02:12.536Z,20.87
2018-03-31T22:04:39.512Z,27.13
2018-03-31T22:07:06.540Z,28.13
2018-03-31T22:09:33.507Z,29.93
2018-03-31T22:12:00.463Z,27.10
2018-03-31T22:14:33.958Z,28.40
2018-03-31T22:17:01.261Z,26.53
2018-03-31T22:19:28.221Z,34.83
2018-03-31T22:21:55.269Z,33.27
2018-03-31T22:24:22.228Z,31.83
2018-03-31T22:26:49.199Z,34.70
2018-03-31T22:29:16.262Z,33.63
2018-03-31T22:31:44.029Z,37.73
2018-03-31T22:34:11.777Z,31.50
2018-03-31T22:36:39.518Z,36.53
2018-03-31T22:39:06.553Z,35.77
2018-03-31T22:41:33.685Z,38.40
2018-03-31T22:44:00.674Z,41.10
2018-03-31T22:46:27.696Z,38.87
2018-03-31T22:48:54.646Z,42.93
2018-03-31T22:51:21.603Z,37.97
2018-03-31T22:53:48.682Z,41.77
2018-03-31T22:56:15.633Z,40.00
2018-03-31T22:58:42.641Z,35.47
2018-03-31T23:01:09.635Z,44.93
2018-03-31T23:03:36.589Z,42.63
2018-03-31T23:06:03.548Z,41.43
2018-03-31T23:08:30.519Z,43.70
2018-03-31T23:10:57.479Z,40.57
2018-03-31T23:13:24.484Z,44.83
2018-03-31T23:15:52.172Z,45.73
2018-03-31T23:18:19.126Z,44.13
2018-03-31T23:20:46.110Z,45.33
2018-03-31T23:23:13.066Z,47.17
2018-03-31T23:25:40.048Z,52.90
2018-03-31T23:28:07.045Z,51.80
2018-03-31T23:30:34.842Z,50.57
2018-03-31T23:33:01.786Z,48.53
2018-03-31T23:35:28.751Z,40.03
2018-03-31T23:37:55.715Z,37.23
2018-03-31T23:40:23.479Z,38.97
2018-03-31T23:42:50.458Z,45.20
2018-03-31T23:45:18.272Z,45.87
2018-03-31T23:47:45.257Z,47.87
2018-03-31T23:50:13.054Z,50.33
2018-03-31T23:52:40.040Z,57.30
2018-03-31T23:55:07.025Z,53.23
2018-03-31T23:57:34.039Z,60.20
